Time;durP1;ratioP1;P1;durP2;ratioP2;P2;SDS_P1;SDS_P2;PMS_P1;PMS_P2;Temp;Humidity;BMP_temperature;BMP_pressure;BME280_temperature;BME280_humidity;BME280_pressure;Samples;Min_cycle;Max_cycle;Signal;HPM_P1;HPM_P2
2023/03/28 00:01:10;;;;;;;;;8.25;8.00;;;;;8.62;44.40;102323.53;5051710;28;45838;-65
2023/03/28 00:03:38;;;;;;;;;10.50;8.00;;;;;8.55;44.88;102315.44;5029245;28;47807;-71
2023/03/28 00:06:08;;;;;;;;;7.50;6.00;;;;;8.39;45.17;102312.22;5039430;28;45516;-66
2023/03/28 00:08:38;;;;;;;;;11.25;8.50;;;;;8.23;45.63;102299.44;5028037;28;45616;-72
2023/03/28 00:11:18;;;;;;;;;11.25;9.75;;;;;8.26;45.44;102303.06;5021761;28;45391;-72
2023/03/28 00:13:46;;;;;;;;;11.25;8.25;;;;;8.13;45.36;102298.22;5044611;28;45583;-64
2023/03/28 00:16:13;;;;;;;;;10.25;8.50;;;;;8.06;45.89;102304.91;5050765;28;45507;-65
2023/03/28 00:18:39;;;;;;;;;13.25;10.25;;;;;7.96;45.91;102310.63;5044166;28;45407;-68
2023/03/28 00:21:22;;;;;;;;;11.50;8.25;;;;;7.97;46.23;102317.66;5038741;28;45369;-67
2023/03/28 00:23:51;;;;;;;;;12.25;10.75;;;;;7.93;46.17;102291.38;5037268;28;46260;-71
2023/03/28 00:26:17;;;;;;;;;12.50;10.00;;;;;7.97;46.17;102314.13;5019687;28;45381;-69
2023/03/28 00:28:44;;;;;;;;;12.00;9.50;;;;;7.86;46.79;102304.19;5019893;28;45881;-64
2023/03/28 00:31:11;;;;;;;;;13.75;11.25;;;;;8.03;46.37;102314.38;5033808;28;45548;-67
2023/03/28 00:33:37;;;;;;;;;13.75;11.25;;;;;7.83;46.75;102304.06;5033189;28;45736;-67
2023/03/28 00:36:03;;;;;;;;;11.50;10.75;;;;;7.93;46.46;102307.91;5032831;28;45838;-67
2023/03/28 00:38:30;;;;;;;;;15.00;11.50;;;;;8.02;46.56;102307.34;5033283;28;45675;-67
2023/03/28 00:40:56;;;;;;;;;13.50;9.00;;;;;8.01;46.22;102310.81;5033739;28;45568;-69
2023/03/28 00:43:40;;;;;;;;;11.75;10.00;;;;;8.03;46.10;102319.59;5034659;28;46030;-71
2023/03/28 00:46:21;;;;;;;;;12.75;9.75;;;;;7.98;46.50;102308.09;5022996;28;45750;-70
2023/03/28 00:48:54;;;;;;;;;10.00;9.75;;;;;7.96;46.30;102305.41;5036373;28;45471;-70
2023/03/28 00:51:25;;;;;;;;;13.25;11.50;;;;;7.99;46.54;102310.75;5037048;28;45747;-68
2023/03/28 00:53:56;;;;;;;;;10.50;8.50;;;;;7.97;46.28;102306.28;5039640;28;45482;-65
2023/03/28 00:56:24;;;;;;;;;14.25;9.75;;;;;7.94;46.22;102309.69;5040440;28;45340;-67
2023/03/28 00:58:51;;;;;;;;;14.00;10.50;;;;;7.84;45.77;102286.69;5040513;28;45400;-72
2023/03/28 01:01:18;;;;;;;;;11.75;9.25;;;;;7.98;46.12;102308.97;5039587;28;45470;-67
2023/03/28 01:03:51;;;;;;;;;11.25;8.25;;;;;7.97;45.84;102307.22;5024736;28;47302;-67
2023/03/28 01:06:20;;;;;;;;;9.50;8.50;;;;;7.98;45.85;102306.38;5055544;28;45829;-68
2023/03/28 01:08:47;;;;;;;;;11.50;8.50;;;;;7.95;46.00;102298.44;5057613;28;45466;-73
2023/03/28 01:11:14;;;;;;;;;11.00;9.75;;;;;8.06;45.73;102307.53;5047162;28;46141;-71
2023/03/28 01:13:51;;;;;;;;;8.75;8.25;;;;;8.03;45.32;102298.72;5047730;28;45491;-69
2023/03/28 01:16:19;;;;;;;;;7.50;7.50;;;;;8.08;45.48;102303.25;5060529;28;45337;-74
2023/03/28 01:18:51;;;;;;;;;9.00;6.00;;;;;8.02;45.78;102297.84;5041947;28;45443;-74
2023/03/28 01:21:47;;;;;;;;;13.00;11.00;;;;;8.13;45.74;102303.44;5052172;28;45522;-73
2023/03/28 01:24:31;;;;;;;;;11.25;10.00;;;;;8.16;45.20;102307.88;5056515;28;46237;-71
2023/03/28 01:26:59;;;;;;;;;13.50;8.00;;;;;8.13;45.68;102297.34;5057277;28;45853;-70
2023/03/28 01:29:46;;;;;;;;;12.75;9.00;;;;;8.10;45.69;102292.00;5055425;28;45473;-66
2023/03/28 01:32:20;;;;;;;;;12.25;8.50;;;;;8.15;45.35;102298.28;5056273;28;45416;-66
2023/03/28 01:35:04;;;;;;;;;8.25;8.25;;;;;8.03;45.11;102296.97;5058333;28;45522;-68
2023/03/28 01:37:54;;;;;;;;;6.50;6.50;;;;;7.94;45.69;102293.16;5058476;28;45400;-65
2023/03/28 01:40:31;;;;;;;;;9.75;9.00;;;;;8.00;45.21;102286.44;5042894;28;45813;-71
2023/03/28 01:43:11;;;;;;;;;7.75;7.75;;;;;7.98;45.78;102282.00;5054569;28;45600;-66
2023/03/28 01:45:51;;;;;;;;;10.00;9.00;;;;;7.99;45.85;102284.66;5055832;28;46341;-67
2023/03/28 01:48:36;;;;;;;;;10.25;8.75;;;;;7.97;46.01;102268.06;5059411;28;45546;-67
2023/03/28 01:51:26;;;;;;;;;11.75;8.25;;;;;7.94;45.84;102251.41;5057680;28;45351;-68
2023/03/28 01:53:58;;;;;;;;;9.50;8.75;;;;;7.95;45.20;102264.50;5026814;28;45937;-66
2023/03/28 01:56:52;;;;;;;;;11.25;9.00;;;;;7.88;45.85;102253.75;5054887;28;45835;-70
2023/03/28 01:59:37;;;;;;;;;9.25;8.50;;;;;7.92;45.28;102248.72;5026015;28;45860;-65
2023/03/28 02:02:11;;;;;;;;;8.00;7.00;;;;;7.95;45.31;102254.06;5055812;28;45708;-68
2023/03/28 02:04:40;;;;;;;;;6.50;4.00;;;;;7.80;45.46;102235.22;5056067;28;45930;-67
2023/03/28 02:07:09;;;;;;;;;8.00;7.75;;;;;7.62;45.76;102219.78;5037862;28;45891;-68
2023/03/28 02:09:37;;;;;;;;;7.75;7.00;;;;;7.68;46.17;102227.84;5057183;28;45377;-73
2023/03/28 02:12:11;;;;;;;;;9.00;6.75;;;;;7.60;46.05;102208.41;5036947;28;45515;-71
2023/03/28 02:14:42;;;;;;;;;8.50;7.50;;;;;7.63;45.76;102229.38;5046966;28;45296;-70
2023/03/28 02:17:14;;;;;;;;;5.25;3.25;;;;;7.62;45.75;102214.59;5046486;28;45534;-74
2023/03/28 02:19:45;;;;;;;;;5.00;4.00;;;;;7.58;45.59;102223.09;5039359;28;45451;-71
2023/03/28 02:22:36;;;;;;;;;4.25;3.00;;;;;7.65;45.80;102225.13;5055124;28;45477;-71
2023/03/28 02:25:03;;;;;;;;;7.25;5.50;;;;;7.48;45.89;102197.53;5036469;28;45696;-68
2023/03/28 02:27:30;;;;;;;;;7.75;5.50;;;;;7.70;45.76;102231.38;5031460;28;45805;-67
2023/03/28 02:29:56;;;;;;;;;8.00;6.25;;;;;7.67;45.38;102235.63;5059400;28;45416;-68
2023/03/28 02:32:22;;;;;;;;;7.75;6.75;;;;;7.62;45.54;102219.78;5040181;28;45671;-71
2023/03/28 02:34:50;;;;;;;;;9.75;5.00;;;;;7.61;45.94;102223.22;5040902;28;45559;-69
2023/03/28 02:37:25;;;;;;;;;10.25;7.00;;;;;7.56;45.68;102217.81;5055382;28;45442;-66
2023/03/28 02:40:15;;;;;;;;;7.00;6.50;;;;;7.57;46.11;102217.00;5055412;28;45510;-67
2023/03/28 02:43:08;;;;;;;;;7.75;6.75;;;;;7.55;46.28;102207.34;5055553;28;45549;-66
2023/03/28 02:45:36;;;;;;;;;6.25;4.50;;;;;7.61;46.02;102211.06;5058884;28;45454;-68
2023/03/28 02:48:16;;;;;;;;;5.50;5.50;;;;;7.54;46.32;102202.97;5059033;28;45344;-69
2023/03/28 02:50:54;;;;;;;;;10.00;6.75;;;;;7.58;46.28;102207.47;5026391;28;45410;-64
2023/03/28 02:53:51;;;;;;;;;8.50;6.50;;;;;7.55;46.47;102195.22;5054259;28;45557;-68
2023/03/28 02:56:25;;;;;;;;;7.00;3.75;;;;;7.59;47.12;102194.50;5040362;28;45477;-71
2023/03/28 02:59:07;;;;;;;;;13.00;7.00;;;;;7.50;46.71;102196.75;5051576;28;45739;-70
2023/03/28 03:01:35;;;;;;;;;9.25;7.00;;;;;7.49;45.97;102194.06;5054913;28;45463;-72
2023/03/28 03:04:01;;;;;;;;;9.00;6.00;;;;;7.47;45.97;102196.63;5053477;28;45506;-71
2023/03/28 03:06:26;;;;;;;;;7.50;5.75;;;;;7.48;46.50;102195.81;5036809;28;45469;-65
2023/03/28 03:08:52;;;;;;;;;7.75;7.25;;;;;7.44;45.91;102193.91;5057431;28;45902;-73
2023/03/28 03:11:17;;;;;;;;;8.00;5.50;;;;;7.30;46.05;102159.47;5058541;28;45502;-76
2023/03/28 03:13:43;;;;;;;;;5.50;5.50;;;;;7.45;46.56;102187.88;5040145;28;45449;-67
2023/03/28 03:16:09;;;;;;;;;10.50;7.25;;;;;7.26;46.52;102167.13;5054935;28;45383;-69
2023/03/28 03:18:35;;;;;;;;;10.25;8.00;;;;;7.33;46.62;102184.78;5054575;28;45949;-70
2023/03/28 03:21:02;;;;;;;;;7.00;7.00;;;;;7.31;46.24;102189.03;5036645;28;45532;-67
2023/03/28 03:23:28;;;;;;;;;12.50;8.75;;;;;7.11;46.70;102149.19;5054636;28;45625;-71
2023/03/28 03:25:53;;;;;;;;;7.50;7.50;;;;;7.09;46.73;102164.75;5059601;28;45440;-74
2023/03/28 03:28:20;;;;;;;;;8.25;8.25;;;;;6.97;47.63;102153.84;5060545;28;45502;-75
2023/03/28 03:30:46;;;;;;;;;8.25;7.75;;;;;6.77;47.73;102124.44;5059636;28;45328;-75
2023/03/28 03:33:13;;;;;;;;;9.75;7.75;;;;;6.89;48.13;102157.88;5060153;28;45200;-71
2023/03/28 03:35:40;;;;;;;;;10.50;10.50;;;;;6.78;48.52;102141.81;5039422;28;45575;-73
2023/03/28 03:38:07;;;;;;;;;9.25;5.50;;;;;6.92;48.52;102139.75;5055605;28;45709;-75
2023/03/28 03:40:33;;;;;;;;;12.50;7.75;;;;;6.87;48.38;102146.50;5025710;28;45436;-73
2023/03/28 03:42:59;;;;;;;;;6.50;5.50;;;;;6.86;48.58;102143.03;5052444;28;45525;-66
2023/03/28 03:45:25;;;;;;;;;12.00;8.00;;;;;6.76;48.10;102136.56;5054682;28;45808;-66
2023/03/28 03:47:50;;;;;;;;;11.75;9.75;;;;;6.80;48.25;102132.34;5054312;28;46336;-65
2023/03/28 03:50:16;;;;;;;;;9.50;7.50;;;;;6.89;48.82;102140.53;5053013;28;45508;-70
2023/03/28 03:52:41;;;;;;;;;12.00;11.00;;;;;6.95;48.70;102148.59;5054477;28;45448;-68
2023/03/28 03:55:07;;;;;;;;;10.75;9.25;;;;;6.77;48.96;102127.91;5057128;28;45473;-76
2023/03/28 03:57:33;;;;;;;;;12.75;10.00;;;;;6.87;49.12;102143.91;5055008;28;46173;-75
2023/03/28 03:59:59;;;;;;;;;13.25;9.50;;;;;6.95;48.70;102145.09;5054835;28;45313;-68
2023/03/28 04:02:25;;;;;;;;;8.50;8.50;;;;;6.77;48.81;102135.72;5036775;28;45490;-69
2023/03/28 04:04:52;;;;;;;;;11.75;10.50;;;;;6.78;48.77;102144.41;5054868;28;45630;-69
2023/03/28 04:07:18;;;;;;;;;11.25;11.25;;;;;6.66;49.63;102146.53;5057492;28;46267;-75
2023/03/28 04:09:43;;;;;;;;;11.00;10.25;;;;;6.48;49.62;102139.75;5036181;28;45374;-73
2023/03/28 04:12:10;;;;;;;;;8.75;8.75;;;;;6.43;49.74;102141.28;5053838;28;45403;-76
2023/03/28 04:14:36;;;;;;;;;19.25;10.00;;;;;6.20;50.12;102119.50;5028795;28;45532;-77
2023/03/28 04:17:03;;;;;;;;;11.00;9.50;;;;;6.23;50.27;102137.84;5037834;28;46915;-67
2023/03/28 04:19:29;;;;;;;;;10.50;9.00;;;;;5.98;50.83;102103.81;5039361;28;45453;-66
2023/03/28 04:21:55;;;;;;;;;15.75;10.00;;;;;5.94;51.36;102150.50;5061354;28;45516;-69
2023/03/28 04:24:24;;;;;;;;;13.50;8.50;;;;;5.74;51.88;102121.00;5061989;28;45507;-74
2023/03/28 04:26:54;;;;;;;;;13.75;11.00;;;;;5.83;52.07;102141.28;5060672;28;47839;-75
2023/03/28 04:29:29;;;;;;;;;10.25;10.00;;;;;5.70;52.00;102134.69;5061721;28;45345;-75
2023/03/28 04:31:58;;;;;;;;;10.25;7.00;;;;;5.75;52.26;102142.69;5058437;28;45523;-74
2023/03/28 04:34:28;;;;;;;;;13.00;10.00;;;;;5.70;52.72;102139.88;5056378;28;45524;-73
2023/03/28 04:37:01;;;;;;;;;12.00;9.75;;;;;5.64;53.17;102144.78;5057475;28;46655;-74
2023/03/28 04:39:34;;;;;;;;;13.25;10.75;;;;;5.70;52.51;102142.47;5057381;28;45406;-71
2023/03/28 04:42:03;;;;;;;;;9.75;9.00;;;;;5.82;52.33;102142.13;5057948;28;45653;-66
2023/03/28 04:44:28;;;;;;;;;12.75;9.00;;;;;5.83;51.89;102145.59;5060195;28;45380;-66
2023/03/28 04:46:55;;;;;;;;;9.50;8.50;;;;;5.82;52.32;102143.84;5059920;28;45673;-65
2023/03/28 04:49:22;;;;;;;;;14.00;8.75;;;;;5.73;52.60;102140.00;5059466;28;45522;-68
2023/03/28 04:51:49;;;;;;;;;9.75;9.75;;;;;5.80;52.23;102151.56;5061665;28;45216;-67
2023/03/28 04:54:15;;;;;;;;;10.50;9.00;;;;;5.78;51.96;102142.81;5061524;28;45371;-66
2023/03/28 04:56:44;;;;;;;;;12.25;9.25;;;;;5.84;52.64;102140.50;5042550;28;46996;-64
2023/03/28 04:59:11;;;;;;;;;11.50;10.00;;;;;5.90;52.49;102158.94;5043038;28;45361;-69
2023/03/28 05:01:36;;;;;;;;;10.25;10.25;;;;;5.74;52.89;102139.19;5046715;28;45452;-69
2023/03/28 05:04:02;;;;;;;;;16.00;11.00;;;;;5.83;52.26;102151.69;5026265;28;45415;-67
2023/03/28 05:06:28;;;;;;;;;8.50;8.00;;;;;5.69;53.09;102147.59;5060575;28;46246;-65
2023/03/28 05:08:53;;;;;;;;;11.25;8.75;;;;;5.68;53.24;102154.50;5043033;28;45711;-65
2023/03/28 05:11:19;;;;;;;;;10.50;9.75;;;;;5.68;53.25;102151.91;5040216;28;45535;-72
2023/03/28 05:13:44;;;;;;;;;12.25;9.25;;;;;5.63;53.27;102129.16;5024849;28;45559;-70
2023/03/28 05:16:10;;;;;;;;;11.00;8.75;;;;;5.64;52.63;102141.31;5038767;28;47141;-65
2023/03/28 05:18:36;;;;;;;;;12.50;9.75;;;;;5.52;52.73;102137.31;5057183;28;45277;-69
2023/03/28 05:21:01;;;;;;;;;5.75;5.00;;;;;5.57;53.41;102154.84;5061235;28;45535;-69
2023/03/28 05:23:27;;;;;;;;;12.25;11.25;;;;;5.58;53.62;102161.84;5043320;28;45462;-66
2023/03/28 05:25:53;;;;;;;;;10.25;10.25;;;;;5.53;53.67;102157.31;5043027;28;45552;-71
2023/03/28 05:28:20;;;;;;;;;10.00;10.00;;;;;5.59;53.46;102150.63;5043441;28;45273;-76
2023/03/28 05:30:46;;;;;;;;;14.00;10.00;;;;;5.64;53.50;102156.91;5058745;28;45553;-75
2023/03/28 05:33:12;;;;;;;;;13.00;11.75;;;;;5.69;53.31;102156.28;5057121;28;45659;-71
2023/03/28 05:35:38;;;;;;;;;13.50;11.25;;;;;5.66;53.55;102145.75;5038748;28;46958;-66
2023/03/28 05:38:03;;;;;;;;;12.50;10.00;;;;;5.66;54.02;102155.25;5055404;28;45968;-69
2023/03/28 05:40:30;;;;;;;;;13.50;12.75;;;;;5.67;53.88;102152.75;5039171;28;45304;-69
2023/03/28 05:42:57;;;;;;;;;14.25;12.25;;;;;5.63;54.13;102149.94;5053315;28;45854;-66
2023/03/28 05:45:23;;;;;;;;;13.50;12.25;;;;;5.64;54.29;102160.38;5038111;28;47591;-73
2023/03/28 05:47:54;;;;;;;;;14.25;14.25;;;;;5.61;53.85;102152.47;5060113;28;45576;-70
2023/03/28 05:50:20;;;;;;;;;17.50;12.75;;;;;5.51;54.11;102156.34;5059192;28;45446;-74
2023/03/28 05:52:46;;;;;;;;;16.00;14.25;;;;;5.63;54.33;102163.81;5054446;28;45466;-74
2023/03/28 05:55:12;;;;;;;;;14.25;12.50;;;;;5.49;54.75;102139.81;5040446;28;46160;-66
2023/03/28 05:57:37;;;;;;;;;13.25;12.75;;;;;5.66;54.74;102163.06;5055910;28;45441;-67
2023/03/28 06:00:12;;;;;;;;;20.00;14.00;;;;;5.41;54.21;102128.19;5041027;28;45436;-70
2023/03/28 06:02:39;;;;;;;;;16.25;15.25;;;;;5.56;54.71;102158.28;5025606;28;45631;-75
2023/03/28 06:05:06;;;;;;;;;16.50;13.50;;;;;5.58;54.63;102167.94;5037486;28;47254;-75
2023/03/28 06:07:32;;;;;;;;;19.50;16.00;;;;;5.62;54.91;102159.41;5040273;28;45929;-72
2023/03/28 06:10:00;;;;;;;;;17.75;13.00;;;;;5.57;55.09;102147.94;5042169;28;45443;-70
2023/03/28 06:12:26;;;;;;;;;14.00;13.00;;;;;5.44;54.96;102133.50;5056787;28;45347;-66
2023/03/28 06:14:51;;;;;;;;;21.50;16.25;;;;;5.40;55.25;102149.78;5034533;28;45595;-72
2023/03/28 06:17:17;;;;;;;;;16.75;15.75;;;;;5.42;55.44;102157.66;5051992;28;45807;-69
2023/03/28 06:19:43;;;;;;;;;13.50;13.00;;;;;5.55;54.59;102178.16;5054674;28;45399;-78
2023/03/28 06:22:08;;;;;;;;;17.50;14.75;;;;;5.49;55.10;102165.78;5056580;28;45584;-76
2023/03/28 06:24:34;;;;;;;;;19.00;15.25;;;;;5.50;55.42;102165.00;5037509;28;46408;-77
2023/03/28 06:27:00;;;;;;;;;17.00;14.25;;;;;5.66;55.24;102181.25;5040912;28;45517;-69
2023/03/28 06:29:25;;;;;;;;;16.50;12.25;;;;;5.58;55.25;102167.03;5041417;28;45347;-67
2023/03/28 06:31:51;;;;;;;;;15.00;13.50;;;;;5.61;55.87;102172.38;5058418;28;45467;-65
2023/03/28 06:34:17;;;;;;;;;12.75;12.75;;;;;5.73;55.74;102175.50;5054838;28;45506;-74
2023/03/28 06:36:43;;;;;;;;;17.00;14.25;;;;;5.78;54.99;102174.00;5057134;28;45469;-66
2023/03/28 06:39:09;;;;;;;;;15.25;13.50;;;;;5.90;54.67;102186.66;5059856;28;45457;-67
2023/03/28 06:41:35;;;;;;;;;15.50;12.50;;;;;5.97;54.61;102193.06;5054580;28;45721;-75
2023/03/28 06:44:01;;;;;;;;;15.75;13.75;;;;;5.91;55.27;102186.75;5053879;28;46872;-78
2023/03/28 06:46:27;;;;;;;;;16.00;14.50;;;;;5.78;54.46;102165.31;5059417;28;45532;-65
2023/03/28 06:48:52;;;;;;;;;18.25;15.00;;;;;5.87;55.19;102179.63;5059604;28;45465;-68
2023/03/28 06:51:19;;;;;;;;;16.75;14.00;;;;;5.98;54.77;102192.22;5038388;28;45452;-67
2023/03/28 06:53:44;;;;;;;;;19.50;16.00;;;;;6.03;55.30;102178.63;5053443;28;45500;-66
2023/03/28 06:56:11;;;;;;;;;15.50;15.25;;;;;5.95;55.47;102177.38;5054887;28;45379;-74
2023/03/28 06:58:36;;;;;;;;;15.25;13.50;;;;;5.95;55.22;102177.38;5053778;28;45385;-75
2023/03/28 07:01:02;;;;;;;;;12.50;12.00;;;;;5.84;54.99;102156.09;5037213;28;45458;-69
2023/03/28 07:03:30;;;;;;;;;13.75;12.50;;;;;5.95;55.50;102174.78;5036611;28;46665;-65
2023/03/28 07:05:56;;;;;;;;;18.25;15.75;;;;;6.00;55.34;102164.59;5057201;28;45589;-66
2023/03/28 07:08:22;;;;;;;;;14.50;14.50;;;;;6.01;54.89;102149.06;5035834;28;45490;-70
2023/03/28 07:10:48;;;;;;;;;16.00;15.75;;;;;6.09;55.15;102141.56;5045756;28;45851;-75
2023/03/28 07:13:14;;;;;;;;;17.00;15.00;;;;;6.18;54.67;102154.09;5039690;28;47137;-72
2023/03/28 07:15:40;;;;;;;;;17.25;14.25;;;;;6.07;55.61;102151.00;5056898;28;45296;-72
2023/03/28 07:18:09;;;;;;;;;19.25;16.25;;;;;6.04;55.28;102136.16;5055870;28;45465;-72
2023/03/28 07:20:40;;;;;;;;;15.75;12.00;;;;;5.86;55.26;102099.84;5054391;28;45611;-69
2023/03/28 07:23:06;;;;;;;;;22.00;16.00;;;;;5.97;55.20;102125.44;5055621;28;46691;-70
2023/03/28 07:25:32;;;;;;;;;20.50;16.00;;;;;6.00;55.46;102125.56;5054114;28;45496;-65
2023/03/28 07:27:57;;;;;;;;;20.00;15.75;;;;;6.01;56.27;102117.84;5051903;28;45454;-66
2023/03/28 07:30:24;;;;;;;;;19.25;16.25;;;;;6.04;56.09;102122.28;5029826;28;45466;-71
2023/03/28 07:32:50;;;;;;;;;18.00;15.50;;;;;6.16;55.03;102133.22;5037623;28;47879;-70
2023/03/28 07:35:16;;;;;;;;;21.50;15.00;;;;;6.12;55.00;102118.28;5055733;28;45557;-70
2023/03/28 07:37:41;;;;;;;;;15.75;14.00;;;;;6.12;55.58;102131.28;5053604;28;45479;-70
2023/03/28 07:40:10;;;;;;;;;22.00;15.25;;;;;6.26;55.44;102153.56;5038093;28;45508;-68
2023/03/28 07:42:36;;;;;;;;;17.50;15.00;;;;;6.31;54.76;102149.47;5056132;28;45377;-73
2023/03/28 07:45:02;;;;;;;;;16.25;15.00;;;;;6.47;54.47;102161.41;5038269;28;45516;-69
2023/03/28 07:47:29;;;;;;;;;13.25;13.00;;;;;6.54;53.82;102131.31;5056797;28;45404;-65
2023/03/28 07:49:56;;;;;;;;;15.00;10.50;;;;;6.77;53.47;102150.47;5056468;28;45487;-67
2023/03/28 07:52:22;;;;;;;;;14.50;12.25;;;;;6.91;53.29;102153.63;5055383;28;45383;-69
2023/03/28 07:54:48;;;;;;;;;18.50;13.75;;;;;6.93;53.40;102146.78;5056132;28;45457;-75
2023/03/28 07:57:13;;;;;;;;;16.25;14.75;;;;;7.03;53.10;102151.50;5055575;28;45770;-65
2023/03/28 07:59:39;;;;;;;;;16.25;14.25;;;;;7.06;53.25;102153.34;5056215;28;45572;-75
2023/03/28 08:02:05;;;;;;;;;14.00;13.00;;;;;6.88;53.30;102124.84;5042668;28;47202;-76
2023/03/28 08:04:30;;;;;;;;;13.25;11.25;;;;;7.09;53.05;102161.25;5045423;28;45469;-83
2023/03/28 08:06:56;;;;;;;;;17.00;14.00;;;;;7.17;53.17;102134.69;5042555;28;45545;-69
2023/03/28 08:09:22;;;;;;;;;14.50;14.00;;;;;7.58;51.94;102165.75;5058125;28;45269;-67
2023/03/28 08:11:48;;;;;;;;;17.25;15.00;;;;;7.65;51.33;102139.06;5056607;28;45478;-68
2023/03/28 08:14:16;;;;;;;;;17.25;13.25;;;;;7.89;51.27;102153.81;5043993;28;45493;-67
2023/03/28 08:16:43;;;;;;;;;15.25;14.00;;;;;7.81;50.42;102123.13;5057319;28;45499;-66
2023/03/28 08:19:09;;;;;;;;;16.00;13.00;;;;;7.84;50.11;102110.19;5037053;28;45471;-69
2023/03/28 08:21:38;;;;;;;;;13.25;12.75;;;;;8.18;50.11;102149.63;5046919;28;46671;-68
2023/03/28 08:24:04;;;;;;;;;13.75;12.25;;;;;8.18;49.88;102149.63;5058672;28;45240;-70
2023/03/28 08:26:30;;;;;;;;;13.75;12.75;;;;;8.14;49.43;102119.94;5054107;28;45571;-69
2023/03/28 08:28:57;;;;;;;;;11.00;11.00;;;;;8.38;49.26;102130.31;5054384;28;45432;-65
2023/03/28 08:31:25;;;;;;;;;14.50;11.50;;;;;8.63;48.85;102147.69;5036968;28;46199;-69
2023/03/28 08:33:52;;;;;;;;;13.25;9.75;;;;;8.73;47.75;102147.97;5053888;28;45679;-71
2023/03/28 08:36:20;;;;;;;;;16.00;12.00;;;;;8.77;47.77;102139.41;5054162;28;45613;-66
2023/03/28 08:38:49;;;;;;;;;13.50;10.75;;;;;8.70;47.41;102131.38;5056724;28;45476;-70
2023/03/28 08:41:51;;;;;;;;;14.50;13.50;;;;;8.94;47.21;102139.94;5058640;28;46043;-66
2023/03/28 08:44:46;;;;;;;;;18.25;11.75;;;;;9.01;46.54;102158.47;5056995;28;45443;-69
2023/03/28 08:47:31;;;;;;;;;11.25;11.00;;;;;8.97;46.01;102153.09;5047808;28;45491;-67
2023/03/28 08:50:06;;;;;;;;;16.50;11.00;;;;;8.87;46.19;102144.09;5035933;28;45606;-65
2023/03/28 08:52:31;;;;;;;;;12.75;11.50;;;;;8.76;46.37;102125.47;5033595;28;46402;-76
2023/03/28 08:55:05;;;;;;;;;11.00;10.25;;;;;8.85;46.20;102131.00;5036858;28;45822;-66
2023/03/28 08:57:34;;;;;;;;;15.00;10.25;;;;;8.89;45.58;102130.22;5040002;28;45234;-68
2023/03/28 09:00:19;;;;;;;;;14.50;10.00;;;;;8.84;45.55;102131.81;5042739;28;46233;-70
2023/03/28 09:02:45;;;;;;;;;7.75;7.75;;;;;8.83;45.53;102118.72;5034656;28;45995;-66
2023/03/28 09:05:16;;;;;;;;;3.00;3.00;;;;;8.95;45.31;102134.78;5054337;28;45544;-64
2023/03/28 09:07:54;;;;;;;;;10.25;8.50;;;;;9.01;44.18;102127.09;5038592;28;45375;-64
2023/03/28 09:10:36;;;;;;;;;7.00;7.00;;;;;9.03;43.82;102109.75;5040174;28;45593;-70
2023/03/28 09:13:19;;;;;;;;;12.25;8.00;;;;;9.10;44.34;102118.66;5047249;28;45464;-67
2023/03/28 09:16:18;;;;;;;;;7.00;7.00;;;;;9.11;43.97;102096.91;5049081;28;45440;-70
2023/03/28 09:19:00;;;;;;;;;7.00;7.00;;;;;9.34;44.23;102119.38;5053986;28;45434;-66
2023/03/28 09:21:35;;;;;;;;;7.75;6.75;;;;;9.44;44.31;102106.56;5020469;28;45538;-66
2023/03/28 09:24:28;;;;;;;;;9.00;8.00;;;;;9.73;43.46;102103.06;5037089;28;46981;-66
2023/03/28 09:27:15;;;;;;;;;7.00;6.50;;;;;9.89;42.99;102101.72;5031559;28;45691;-69
2023/03/28 09:29:44;;;;;;;;;7.00;5.50;;;;;10.03;42.41;102112.56;5035941;28;45652;-67
2023/03/28 09:32:25;;;;;;;;;8.00;5.25;;;;;10.00;42.08;102094.16;5041334;28;45897;-66
2023/03/28 09:34:51;;;;;;;;;10.50;7.00;;;;;10.06;42.02;102104.81;5035265;28;45563;-66
2023/03/28 09:37:39;;;;;;;;;7.50;5.50;;;;;10.17;42.09;102105.94;5036096;28;45588;-69
2023/03/28 09:40:26;;;;;;;;;44.75;36.75;;;;;10.39;41.94;102090.78;5018846;28;45443;-74
2023/03/28 09:43:08;;;;;;;;;11.25;8.25;;;;;10.23;41.51;102080.75;5036206;28;45548;-70
2023/03/28 09:45:39;;;;;;;;;44.50;32.00;;;;;10.17;41.67;102076.25;5025053;28;47610;-67
2023/03/28 09:48:19;;;;;;;;;13.50;9.75;;;;;9.87;41.28;102034.47;5044704;28;45509;-71
2023/03/28 09:50:45;;;;;;;;;8.25;7.00;;;;;10.16;40.65;102061.41;5041199;28;45526;-72
2023/03/28 09:53:25;;;;;;;;;8.75;6.00;;;;;10.43;41.19;102063.84;5037337;28;45510;-66
2023/03/28 09:56:19;;;;;;;;;5.75;5.75;;;;;10.55;41.40;102034.44;5043370;28;45400;-75
2023/03/28 09:59:01;;;;;;;;;6.25;6.25;;;;;10.65;39.92;102052.13;5064683;28;45674;-68
2023/03/28 10:01:51;;;;;;;;;9.50;5.50;;;;;10.73;40.56;102044.47;5061406;28;45399;-70
2023/03/28 10:04:37;;;;;;;;;7.25;5.75;;;;;10.65;40.24;102025.91;5056713;28;45888;-76
2023/03/28 10:07:13;;;;;;;;;8.50;5.00;;;;;10.86;40.55;102045.59;5059396;28;46209;-73
2023/03/28 10:09:50;;;;;;;;;5.00;4.25;;;;;10.68;39.46;102015.53;5043783;28;45428;-75
2023/03/28 10:12:36;;;;;;;;;6.75;4.00;;;;;10.99;39.36;102032.78;5040893;28;45429;-71
2023/03/28 10:15:03;;;;;;;;;5.75;4.00;;;;;10.94;39.11;102021.31;5051005;28;45816;-76
2023/03/28 10:17:32;;;;;;;;;3.25;3.25;;;;;11.07;38.51;102027.69;5056787;28;45470;-72
2023/03/28 10:20:02;;;;;;;;;4.00;3.50;;;;;10.82;38.21;101981.75;5056690;28;45494;-69
2023/03/28 10:22:32;;;;;;;;;2.75;2.75;;;;;11.09;38.82;102022.50;5054995;28;45615;-66
2023/03/28 10:24:59;;;;;;;;;6.00;4.00;;;;;11.14;38.39;102028.72;5058972;28;45437;-67
2023/03/28 10:27:33;;;;;;;;;3.50;3.50;;;;;11.22;39.60;102029.75;5059287;28;45256;-69
2023/03/28 10:30:20;;;;;;;;;3.50;3.50;;;;;11.31;39.51;102015.94;5059644;28;45458;-72
2023/03/28 10:33:15;;;;;;;;;3.50;3.50;;;;;11.49;39.73;102018.91;5050554;28;45525;-71
2023/03/28 10:35:44;;;;;;;;;5.25;3.00;;;;;11.51;38.49;102034.66;5054877;28;45390;-73
2023/03/28 10:38:16;;;;;;;;;6.00;3.00;;;;;11.62;38.83;102023.50;5036691;28;47167;-68
2023/03/28 10:41:02;;;;;;;;;3.50;3.00;;;;;11.54;38.54;102019.88;5037787;28;45522;-68
2023/03/28 10:43:34;;;;;;;;;5.75;3.25;;;;;11.53;38.67;102025.09;5059924;28;45220;-66
2023/03/28 10:46:06;;;;;;;;;4.25;3.75;;;;;11.33;37.77;102020.34;5055956;28;45338;-66
2023/03/28 10:48:35;;;;;;;;;6.75;3.00;;;;;11.08;38.59;101987.53;5057492;28;45422;-70
2023/03/28 10:51:07;;;;;;;;;7.25;2.50;;;;;11.28;38.15;102003.66;5041319;28;45548;-72
2023/03/28 10:53:52;;;;;;;;;3.25;2.00;;;;;11.21;37.95;101978.16;5057305;28;45647;-74
2023/03/28 10:56:27;;;;;;;;;6.75;3.25;;;;;11.32;38.17;102008.09;5056018;28;45402;-68
2023/03/28 10:59:10;;;;;;;;;3.00;3.00;;;;;11.18;38.83;101999.09;5055093;28;46768;-67
2023/03/28 11:01:54;;;;;;;;;5.50;3.00;;;;;11.12;38.30;101991.09;5054844;28;45426;-69
2023/03/28 11:04:32;;;;;;;;;4.50;3.25;;;;;10.96;38.43;101979.41;5056893;28;45405;-69
2023/03/28 11:06:57;;;;;;;;;3.75;3.75;;;;;10.91;38.74;101981.03;5039569;28;45355;-68
2023/03/28 11:09:35;;;;;;;;;7.75;5.00;;;;;10.72;38.99;101979.78;5054236;28;45406;-68
2023/03/28 11:12:07;;;;;;;;;6.75;5.00;;;;;10.61;39.50;101985.69;5053898;28;45533;-70
2023/03/28 11:14:55;;;;;;;;;5.75;5.00;;;;;10.60;39.75;101980.41;5024052;28;45722;-75
2023/03/28 11:18:02;;;;;;;;;5.00;5.00;;;;;10.67;40.18;101976.19;5036705;28;45518;-77
2023/03/28 11:20:40;;;;;;;;;8.00;5.00;;;;;10.93;40.03;101966.25;5054266;28;46059;-76
2023/03/28 11:23:19;;;;;;;;;5.75;4.00;;;;;11.00;39.74;101961.13;5054685;28;45633;-79
2023/03/28 11:26:09;;;;;;;;;5.50;4.00;;;;;11.04;40.02;101949.88;5055329;28;45405;-78
2023/03/28 11:28:51;;;;;;;;;5.75;4.00;;;;;11.20;39.54;101944.91;5055887;28;45399;-77
2023/03/28 11:31:27;;;;;;;;;6.25;4.00;;;;;11.23;39.53;101929.25;5057740;28;45586;-73
2023/03/28 11:34:18;;;;;;;;;8.00;5.25;;;;;11.49;39.33;101955.06;5057551;28;45525;-71
2023/03/28 11:37:16;;;;;;;;;5.75;4.25;;;;;11.50;38.61;101943.72;5042410;28;45752;-71
2023/03/28 11:39:47;;;;;;;;;6.25;4.00;;;;;11.69;39.04;101951.03;5054333;28;45437;-67
2023/03/28 11:42:19;;;;;;;;;6.25;4.00;;;;;11.72;39.02;101935.34;5032138;28;47647;-68
2023/03/28 11:45:26;;;;;;;;;5.00;5.00;;;;;11.74;39.06;101946.72;5033809;28;45523;-67